Time;durP1;ratioP1;P1;durP2;ratioP2;P2;SDS_P1;SDS_P2;PMS_P1;PMS_P2;Temp;Humidity;BMP_temperature;BMP_pressure;BME280_temperature;BME280_humidity;BME280_pressure;Samples;Min_cycle;Max_cycle;Signal;HPM_P1;HPM_P2
2022/01/19 00:01:19;;;;;;;193.18;157.75;;;;;;;14.86;32.63;94962.28;5008537;28;20060;-66
2022/01/19 00:03:44;;;;;;;204.50;165.55;;;;;;;14.84;32.75;94951.94;5006090;28;20429;-65
2022/01/19 00:06:10;;;;;;;193.98;157.10;;;;;;;14.84;32.73;94943.84;5011622;28;20085;-67
2022/01/19 00:08:35;;;;;;;196.32;159.77;;;;;;;14.84;32.83;94935.75;5008977;28;20053;-67
2022/01/19 00:11:01;;;;;;;191.55;157.27;;;;;;;14.82;32.67;94936.19;5012007;28;20641;-66
2022/01/19 00:13:27;;;;;;;199.10;163.90;;;;;;;14.85;32.48;94939.22;5005411;28;20054;-66
2022/01/19 00:15:53;;;;;;;202.07;166.63;;;;;;;14.83;32.59;94940.38;5004726;28;20099;-67
2022/01/19 00:18:24;;;;;;;194.35;156.77;;;;;;;14.85;32.46;94942.69;5004363;28;20942;-66
2022/01/19 00:20:51;;;;;;;188.02;155.00;;;;;;;14.82;32.60;94927.34;5007154;28;20045;-67
2022/01/19 00:23:18;;;;;;;196.48;159.27;;;;;;;14.83;32.63;94934.25;5009295;28;20108;-67
2022/01/19 00:25:45;;;;;;;203.32;165.30;;;;;;;14.82;32.62;94938.88;5006706;28;20057;-65
2022/01/19 00:28:11;;;;;;;195.27;160.07;;;;;;;14.85;32.49;94952.69;5007331;28;20129;-67
2022/01/19 00:30:36;;;;;;;193.63;158.77;;;;;;;14.82;32.62;94946.94;5003950;28;20073;-67
2022/01/19 00:33:02;;;;;;;195.13;159.20;;;;;;;14.81;32.56;94940.03;5010316;28;20118;-66
2022/01/19 00:35:28;;;;;;;190.45;153.35;;;;;;;14.83;32.49;94935.00;5009139;28;20041;-65
2022/01/19 00:37:54;;;;;;;196.43;160.45;;;;;;;14.83;32.60;94936.94;5010466;28;20064;-67
2022/01/19 00:40:20;;;;;;;201.32;162.75;;;;;;;14.83;32.59;94936.94;5004069;28;20157;-65
2022/01/19 00:42:46;;;;;;;196.65;160.02;;;;;;;14.83;32.29;94939.63;5006215;28;20103;-67
2022/01/19 00:45:13;;;;;;;193.63;157.93;;;;;;;14.82;32.53;94920.03;5006666;28;20438;-67
2022/01/19 00:47:39;;;;;;;191.43;155.70;;;;;;;14.83;32.35;94912.69;5003498;28;20054;-65
2022/01/19 00:50:07;;;;;;;192.32;156.40;;;;;;;14.81;32.57;94915.81;5005266;28;20417;-66
2022/01/19 00:52:35;;;;;;;196.40;159.93;;;;;;;14.81;32.61;94917.75;5006126;28;20045;-66
2022/01/19 00:55:04;;;;;;;193.10;156.43;;;;;;;14.81;32.64;94901.59;5007453;28;20042;-66
2022/01/19 00:57:30;;;;;;;190.60;155.70;;;;;;;14.79;32.56;94902.00;4994434;28;20053;-66
2022/01/19 00:59:55;;;;;;;210.45;171.52;;;;;;;14.80;32.60;94900.81;5007181;28;20053;-66
2022/01/19 01:02:21;;;;;;;193.68;157.82;;;;;;;14.81;32.57;94894.25;5007158;28;22779;-65
2022/01/19 01:04:46;;;;;;;194.35;159.50;;;;;;;14.79;32.47;94885.84;5005482;28;20156;-66
2022/01/19 01:07:12;;;;;;;193.40;158.43;;;;;;;14.80;32.61;94873.91;5004026;28;20050;-66
2022/01/19 01:09:37;;;;;;;193.70;157.32;;;;;;;14.81;32.53;94880.03;4995112;28;20042;-65
2022/01/19 01:12:20;;;;;;;194.10;157.25;;;;;;;14.80;32.29;94881.97;5005724;28;20054;-67
2022/01/19 01:20:14;;;;;;;195.68;158.15;;;;;;;14.80;32.64;94855.03;5008062;28;20065;-66
2022/01/19 01:22:41;;;;;;;198.82;162.05;;;;;;;14.79;32.51;94845.44;5008255;28;20114;-67
2022/01/19 01:25:07;;;;;;;195.75;158.38;;;;;;;14.79;32.50;94834.66;5006540;28;20048;-67
2022/01/19 01:27:33;;;;;;;191.40;156.57;;;;;;;14.78;32.67;94835.84;5006477;28;20049;-67
2022/01/19 01:29:59;;;;;;;204.50;166.35;;;;;;;14.79;32.51;94829.28;5009422;28;20397;-67
2022/01/19 01:32:24;;;;;;;190.00;153.13;;;;;;;14.79;32.45;94831.22;5006687;28;20075;-67
2022/01/19 01:34:51;;;;;;;194.45;159.50;;;;;;;14.79;32.58;94836.59;5005424;28;20069;-66
2022/01/19 01:37:18;;;;;;;207.48;167.40;;;;;;;14.79;32.51;94840.06;4997396;28;20061;-66
2022/01/19 01:39:43;;;;;;;190.95;154.88;;;;;;;14.79;32.57;94842.00;5005916;28;20045;-66
2022/01/19 01:42:13;;;;;;;192.60;157.90;;;;;;;14.78;32.58;94841.22;5007203;28;20056;-67
2022/01/19 01:44:41;;;;;;;208.85;168.60;;;;;;;14.77;32.71;94833.56;5010402;28;20074;-66
2022/01/19 01:47:07;;;;;;;196.88;160.73;;;;;;;14.78;32.61;94829.69;5004377;28;20046;-66
2022/01/19 01:55:19;;;;;;;207.10;166.73;;;;;;;14.76;32.51;94794.34;4999740;28;20533;-67
2022/01/19 01:57:45;;;;;;;196.65;158.35;;;;;;;14.75;32.62;94785.50;5003307;28;20064;-68
2022/01/19 02:00:13;;;;;;;200.65;161.80;;;;;;;14.75;32.51;94782.06;5005530;28;20057;-67
2022/01/19 02:02:41;;;;;;;192.57;156.43;;;;;;;14.73;32.56;94769.00;5008317;28;20053;-66
2022/01/19 02:05:11;;;;;;;197.38;161.05;;;;;;;14.74;32.45;94767.84;5006824;28;20042;-67
2022/01/19 02:07:47;;;;;;;186.95;152.25;;;;;;;14.74;32.60;94757.06;5008560;28;20465;-66
2022/01/19 02:10:30;;;;;;;195.63;158.32;;;;;;;14.74;32.49;94756.31;5004050;28;20054;-66
2022/01/19 02:16:13;;;;;;;191.10;153.73;;;;;;;14.72;32.54;94748.66;5006739;28;20119;-66
2022/01/19 02:21:39;;;;;;;196.35;158.00;;;;;;;14.73;32.70;94742.09;5009275;28;20050;-67
2022/01/19 02:24:09;;;;;;;190.30;154.35;;;;;;;14.73;32.66;94739.41;5006963;28;20052;-67
2022/01/19 02:40:18;;;;;;;193.13;155.45;;;;;;;14.73;32.64;94725.19;5009150;28;20057;-66
2022/01/19 02:50:32;;;;;;;196.18;157.35;;;;;;;14.71;32.46;94714.06;5003222;28;20046;-65
2022/01/19 02:52:58;;;;;;;190.88;152.93;;;;;;;14.72;32.63;94720.97;5008127;28;20045;-65
2022/01/19 02:55:24;;;;;;;193.43;156.02;;;;;;;14.72;32.45;94712.88;5002571;28;20067;-67
2022/01/19 02:57:50;;;;;;;191.35;154.43;;;;;;;14.72;32.44;94720.97;5002538;28;20758;-67
2022/01/19 03:08:46;;;;;;;191.38;154.90;;;;;;;14.72;32.55;94712.88;5007767;28;20045;-65
2022/01/19 03:11:14;;;;;;;197.10;159.98;;;;;;;14.73;32.40;94711.72;5007152;28;20115;-67
2022/01/19 03:13:39;;;;;;;194.18;157.95;;;;;;;14.72;32.28;94705.56;5009061;28;20076;-65
2022/01/19 03:16:05;;;;;;;204.82;164.93;;;;;;;14.71;32.42;94704.03;5004364;28;20064;-65
2022/01/19 03:18:31;;;;;;;194.13;158.68;;;;;;;14.70;32.39;94707.91;5003215;28;20053;-66
2022/01/19 03:20:56;;;;;;;198.52;159.48;;;;;;;14.70;32.21;94707.16;5004601;28;20041;-67
2022/01/19 03:23:22;;;;;;;194.50;158.20;;;;;;;14.69;32.42;94711.78;5011440;28;20044;-65
2022/01/19 03:25:48;;;;;;;202.25;163.38;;;;;;;14.69;32.48;94716.41;5008608;28;20061;-67
2022/01/19 03:28:14;;;;;;;196.52;157.75;;;;;;;14.69;32.29;94719.84;5009404;28;20466;-67
2022/01/19 03:30:40;;;;;;;191.82;155.65;;;;;;;14.69;32.32;94717.16;5007494;28;20049;-66
2022/01/19 03:33:06;;;;;;;192.10;155.70;;;;;;;14.66;32.29;94731.44;5009500;28;20478;-66
2022/01/19 03:35:32;;;;;;;194.13;156.45;;;;;;;14.62;32.27;94733.44;5010774;28;20045;-66
2022/01/19 03:37:58;;;;;;;196.50;159.95;;;;;;;14.61;32.30;94728.47;5008969;28;20033;-65
2022/01/19 03:40:24;;;;;;;193.85;157.10;;;;;;;14.59;32.27;94728.91;5009067;28;20042;-67
2022/01/19 03:42:50;;;;;;;192.40;155.98;;;;;;;14.59;32.39;94734.28;5010434;28;20107;-65
2022/01/19 03:45:16;;;;;;;197.35;158.77;;;;;;;14.61;32.09;94728.47;5007435;28;20045;-67
2022/01/19 03:47:46;;;;;;;190.73;155.65;;;;;;;14.61;32.30;94726.56;5007945;28;20050;-66
2022/01/19 03:50:12;;;;;;;195.80;159.27;;;;;;;14.57;32.18;94731.25;5008934;28;20079;-65
2022/01/19 03:52:37;;;;;;;195.90;158.52;;;;;;;14.49;32.14;94727.91;5011534;28;20473;-65
2022/01/19 03:55:05;;;;;;;192.10;155.13;;;;;;;14.49;32.34;94738.69;4996981;28;20125;-66
2022/01/19 03:57:30;;;;;;;195.18;158.32;;;;;;;14.52;32.32;94736.34;4993083;28;20214;-66
2022/01/19 03:59:56;;;;;;;191.63;155.05;;;;;;;14.44;32.18;94731.09;5012206;28;20091;-66
2022/01/19 04:02:22;;;;;;;197.93;159.27;;;;;;;14.43;32.30;94732.25;5006642;28;20187;-65
2022/01/19 04:05:17;;;;;;;195.52;157.85;;;;;;;14.46;32.32;94728.75;5006085;28;20477;-65
2022/01/19 04:07:34;;;;;;;196.02;158.13;;;;;;;14.48;32.28;94731.78;5008868;28;20450;-68
2022/01/19 04:10:00;;;;;;;199.25;160.27;;;;;;;14.50;32.36;94724.06;5010062;28;20076;-65
2022/01/19 04:12:46;;;;;;;192.43;154.57;;;;;;;14.54;32.38;94717.84;5009090;28;20076;-65
2022/01/19 04:15:14;;;;;;;191.70;153.80;;;;;;;14.55;32.37;94714.00;5008991;28;20049;-64
2022/01/19 04:17:46;;;;;;;200.32;157.85;;;;;;;14.57;32.31;94719.72;5006642;28;20049;-66
2022/01/19 04:20:12;;;;;;;194.38;156.32;;;;;;;14.58;32.37;94723.94;5011414;28;20049;-66
2022/01/19 04:22:38;;;;;;;193.25;156.57;;;;;;;14.59;32.30;94723.50;5012991;28;20417;-67
2022/01/19 04:25:04;;;;;;;187.13;150.80;;;;;;;14.58;32.23;94713.16;5008771;28;20042;-66
2022/01/19 04:30:07;;;;;;;194.23;155.55;;;;;;;14.59;32.26;94709.28;5007417;28;20190;-65
2022/01/19 04:32:44;;;;;;;189.27;153.27;;;;;;;14.59;32.15;94710.06;5011668;28;20191;-64
2022/01/19 04:35:13;;;;;;;195.75;157.57;;;;;;;14.61;32.13;94712.34;5008108;28;20076;-64
2022/01/19 04:46:22;;;;;;;204.05;163.60;;;;;;;14.59;32.03;94709.28;5011056;28;20053;-67
2022/01/19 05:15:38;;;;;;;190.07;153.18;;;;;;;14.59;32.02;94707.38;5006416;28;20045;-66
2022/01/19 05:18:04;;;;;;;195.23;158.38;;;;;;;14.62;32.14;94708.47;5011992;28;20413;-66
2022/01/19 05:20:30;;;;;;;190.75;153.95;;;;;;;14.61;32.06;94702.31;5008679;28;20288;-68
2022/01/19 05:22:56;;;;;;;192.48;155.98;;;;;;;14.64;32.09;94703.44;5009006;28;20072;-68
2022/01/19 05:25:21;;;;;;;194.43;154.70;;;;;;;14.62;32.13;94703.84;5007286;28;20038;-68
2022/01/19 05:27:47;;;;;;;198.05;159.20;;;;;;;14.62;32.01;94700.38;5006248;28;20054;-65
2022/01/19 05:30:13;;;;;;;195.85;156.30;;;;;;;14.64;32.04;94696.13;5007769;28;20084;-65
2022/01/19 05:32:38;;;;;;;192.50;156.30;;;;;;;14.66;32.04;94687.63;5007411;28;20756;-65
2022/01/19 05:35:04;;;;;;;195.45;157.93;;;;;;;14.66;31.83;94685.69;5011491;28;20050;-65
2022/01/19 05:37:36;;;;;;;194.43;157.65;;;;;;;14.68;31.85;94693.34;5008393;28;20044;-66
2022/01/19 05:40:07;;;;;;;197.35;159.23;;;;;;;14.68;31.67;94682.59;5008918;28;20053;-66
2022/01/19 05:42:33;;;;;;;199.15;161.57;;;;;;;14.67;31.82;94676.44;5006851;28;20045;-66
2022/01/19 05:44:58;;;;;;;198.27;161.50;;;;;;;14.67;31.89;94673.75;5007175;28;20472;-65
2022/01/19 05:47:24;;;;;;;195.98;159.88;;;;;;;14.67;31.85;94667.59;5008567;28;20045;-64
2022/01/19 05:49:50;;;;;;;192.23;155.50;;;;;;;14.67;31.80;94664.91;5010401;28;20116;-65
2022/01/19 05:52:15;;;;;;;196.02;159.38;;;;;;;14.68;32.07;94663.75;5006902;28;20077;-66
2022/01/19 05:54:41;;;;;;;203.10;164.35;;;;;;;14.69;31.91;94659.88;5006001;28;20052;-66
2022/01/19 05:57:07;;;;;;;197.07;160.00;;;;;;;14.69;31.99;94659.88;5008509;28;20156;-65
2022/01/19 05:59:33;;;;;;;193.18;156.82;;;;;;;14.69;31.86;94659.88;5009123;28;20167;-65
2022/01/19 06:01:59;;;;;;;192.05;156.40;;;;;;;14.67;32.06;94654.16;5008972;28;20663;-65
2022/01/19 06:04:24;;;;;;;202.05;164.70;;;;;;;14.70;31.91;94653.31;5008498;28;20181;-66
2022/01/19 06:06:52;;;;;;;192.95;155.52;;;;;;;14.69;31.73;94649.88;5008323;28;20156;-66
2022/01/19 06:09:35;;;;;;;193.75;156.52;;;;;;;14.69;31.76;94649.09;5008694;28;20053;-66
2022/01/19 06:12:09;;;;;;;196.60;159.00;;;;;;;14.70;31.84;94642.53;5005839;28;20045;-65
2022/01/19 06:14:37;;;;;;;196.07;159.95;;;;;;;14.68;31.68;94647.59;5007449;28;20053;-66
2022/01/19 06:17:05;;;;;;;193.77;157.65;;;;;;;14.69;31.87;94649.09;5005689;28;20073;-66
2022/01/19 06:19:31;;;;;;;191.55;155.40;;;;;;;14.71;31.81;94641.38;5010238;28;20098;-65
2022/01/19 06:21:57;;;;;;;192.27;156.07;;;;;;;14.72;31.70;94645.59;5007719;28;20434;-66
2022/01/19 06:24:23;;;;;;;195.18;158.63;;;;;;;14.72;31.68;94632.88;5008286;28;20091;-66
2022/01/19 06:26:48;;;;;;;193.40;156.23;;;;;;;14.73;31.79;94639.78;4991072;28;20071;-66
2022/01/19 06:29:14;;;;;;;196.80;161.15;;;;;;;14.72;31.80;94635.56;5006577;28;20137;-65
2022/01/19 06:31:40;;;;;;;197.27;160.50;;;;;;;14.73;31.60;94628.25;5005146;28;20107;-66
2022/01/19 06:34:06;;;;;;;192.48;154.57;;;;;;;14.73;31.71;94634.41;5006451;28;20041;-66
2022/01/19 06:36:32;;;;;;;190.32;154.00;;;;;;;14.74;31.54;94633.22;5006206;28;20061;-65
2022/01/19 06:38:57;;;;;;;197.68;160.93;;;;;;;14.74;31.56;94641.28;5004096;28;20488;-66
2022/01/19 06:41:23;;;;;;;192.60;155.15;;;;;;;14.75;31.71;94634.75;5006083;28;20056;-65
2022/01/19 06:43:50;;;;;;;194.30;157.57;;;;;;;14.75;31.64;94632.03;5004862;28;20042;-65
2022/01/19 06:46:15;;;;;;;197.85;160.23;;;;;;;14.75;31.56;94628.59;5002767;28;20058;-65
2022/01/19 06:48:40;;;;;;;200.98;164.18;;;;;;;14.77;31.62;94628.94;5004791;28;20442;-65
2022/01/19 06:51:06;;;;;;;191.68;154.85;;;;;;;14.75;31.53;94618.59;5003525;28;20136;-66
2022/01/19 06:53:32;;;;;;;193.90;157.35;;;;;;;14.76;31.70;94620.09;5002200;28;20046;-64
2022/01/19 06:55:57;;;;;;;200.18;161.63;;;;;;;14.76;31.50;94620.09;5007979;28;20049;-66
2022/01/19 06:58:27;;;;;;;192.45;156.27;;;;;;;14.77;31.67;94615.47;5004656;28;20050;-66
2022/01/19 07:00:54;;;;;;;196.40;157.88;;;;;;;14.77;31.59;94608.16;5004689;28;20836;-65
2022/01/19 07:03:20;;;;;;;196.32;160.40;;;;;;;14.78;31.88;94611.59;5004909;28;20065;-65
2022/01/19 07:05:46;;;;;;;202.02;163.98;;;;;;;14.77;31.30;94605.47;5002522;28;20037;-65
2022/01/19 07:08:11;;;;;;;194.13;157.40;;;;;;;14.78;31.50;94612.38;5007412;28;20517;-66
2022/01/19 07:10:37;;;;;;;189.20;153.65;;;;;;;14.75;31.51;94602.44;5005215;28;20050;-64
2022/01/19 07:13:04;;;;;;;191.18;156.02;;;;;;;14.75;31.42;94604.38;5004700;28;20053;-66
2022/01/19 07:15:29;;;;;;;196.43;160.32;;;;;;;14.75;31.45;94596.28;5009352;28;20465;-66
2022/01/19 07:17:54;;;;;;;190.38;154.90;;;;;;;14.75;31.25;94607.81;5009193;28;20065;-65
2022/01/19 07:20:20;;;;;;;195.15;158.40;;;;;;;14.73;31.36;94601.31;5004685;28;20430;-66
2022/01/19 07:22:47;;;;;;;190.90;153.95;;;;;;;14.73;31.38;94599.41;5007825;28;20041;-66
2022/01/19 07:25:13;;;;;;;194.93;158.90;;;;;;;14.73;31.44;94599.41;5007423;28;20862;-65
2022/01/19 07:27:39;;;;;;;196.48;160.25;;;;;;;14.72;31.53;94589.03;5004838;28;20076;-65
2022/01/19 07:30:05;;;;;;;190.18;155.70;;;;;;;14.73;31.44;94598.63;5007425;28;20630;-65
2022/01/19 07:32:34;;;;;;;197.40;161.07;;;;;;;14.74;31.44;94589.38;5004375;28;20069;-66
2022/01/19 07:35:04;;;;;;;193.68;157.60;;;;;;;14.75;31.42;94588.22;5007530;28;20046;-66
2022/01/19 07:37:29;;;;;;;195.45;158.40;;;;;;;14.75;31.28;94594.34;5003690;28;20469;-65
2022/01/19 07:39:55;;;;;;;189.18;153.73;;;;;;;14.75;31.31;94593.59;5008591;28;20096;-65
2022/01/19 07:42:20;;;;;;;196.30;159.40;;;;;;;14.71;31.17;94587.53;5007132;28;20034;-66
2022/01/19 07:44:46;;;;;;;194.18;159.43;;;;;;;14.66;31.36;94593.41;5005226;28;20205;-65
2022/01/19 07:47:12;;;;;;;197.85;160.52;;;;;;;14.61;31.24;94589.28;5007733;28;20045;-67
2022/01/19 07:49:37;;;;;;;191.43;156.60;;;;;;;14.60;31.37;94578.91;5005544;28;20088;-66
2022/01/19 07:52:03;;;;;;;194.73;157.70;;;;;;;14.56;31.41;94589.00;5002223;28;20799;-66
2022/01/19 07:54:28;;;;;;;193.93;156.50;;;;;;;14.48;31.46;94586.47;5007051;28;20050;-66
2022/01/19 07:56:54;;;;;;;192.63;157.27;;;;;;;14.54;31.12;94594.03;5006878;28;20136;-66
2022/01/19 07:59:20;;;;;;;192.48;153.32;;;;;;;14.59;31.25;94583.53;5006444;28;20046;-65
2022/01/19 08:01:46;;;;;;;191.35;154.93;;;;;;;14.66;31.07;94585.31;5008283;28;22566;-64
2022/01/19 08:04:12;;;;;;;193.23;156.25;;;;;;;14.68;31.06;94575.66;5007051;28;20068;-65
2022/01/19 08:06:37;;;;;;;191.07;154.27;;;;;;;14.69;31.07;94579.88;5007053;28;20080;-65
2022/01/19 08:09:04;;;;;;;199.70;161.48;;;;;;;14.70;31.08;94565.22;5011054;28;20489;-65
2022/01/19 08:11:30;;;;;;;193.15;156.13;;;;;;;14.71;31.13;94574.81;5010785;28;20084;-66
2022/01/19 08:13:55;;;;;;;197.63;159.70;;;;;;;14.74;31.20;94584.00;5010433;28;20046;-66
2022/01/19 08:16:21;;;;;;;190.15;154.13;;;;;;;14.74;31.32;94567.84;5008832;28;20367;-66
2022/01/19 08:18:48;;;;;;;191.13;154.35;;;;;;;14.75;31.19;94580.88;5009662;28;20273;-65
2022/01/19 08:21:14;;;;;;;199.15;160.77;;;;;;;14.77;31.39;94572.41;5009262;28;20053;-65
2022/01/19 08:23:39;;;;;;;194.95;156.55;;;;;;;14.75;31.31;94578.19;5007998;28;20073;-65
2022/01/19 08:26:05;;;;;;;202.95;164.25;;;;;;;14.77;31.35;94569.69;5008824;28;20050;-65
2022/01/19 08:28:30;;;;;;;193.00;155.73;;;;;;;14.77;31.11;94575.09;5008802;28;20037;-66
2022/01/19 08:30:56;;;;;;;195.98;156.63;;;;;;;14.77;31.44;94577.78;5002902;28;20109;-65
2022/01/19 08:33:22;;;;;;;196.13;158.50;;;;;;;14.75;31.37;94575.50;5007308;28;20129;-65
2022/01/19 08:35:47;;;;;;;196.07;159.52;;;;;;;14.78;31.28;94571.97;5007749;28;20046;-66
2022/01/19 08:38:13;;;;;;;201.85;162.63;;;;;;;14.78;31.35;94571.22;5008401;28;20042;-65
2022/01/19 08:40:39;;;;;;;192.50;157.23;;;;;;;14.78;31.34;94571.97;5008343;28;20658;-65
2022/01/19 08:43:05;;;;;;;193.25;158.35;;;;;;;14.78;31.16;94558.50;5011031;28;20060;-66
2022/01/19 08:45:31;;;;;;;189.88;152.73;;;;;;;14.80;31.04;94563.47;5009833;28;20054;-66
2022/01/19 08:47:57;;;;;;;191.68;155.70;;;;;;;14.79;31.28;94567.34;5010822;28;20319;-66
2022/01/19 08:50:22;;;;;;;193.25;157.45;;;;;;;14.78;31.38;94563.91;5008453;28;20659;-65
2022/01/19 08:52:48;;;;;;;197.50;160.18;;;;;;;14.80;31.31;94560.78;5010603;28;20050;-66
2022/01/19 08:55:15;;;;;;;191.90;155.48;;;;;;;14.80;31.43;94556.16;5011839;28;20471;-66
2022/01/19 08:57:41;;;;;;;192.05;156.35;;;;;;;14.80;31.44;94560.78;5011325;28;20125;-64
2022/01/19 09:00:09;;;;;;;192.23;155.40;;;;;;;14.80;31.51;94548.09;5010770;28;20155;-66
2022/01/19 09:02:35;;;;;;;195.35;158.35;;;;;;;14.82;31.47;94563.81;5008991;28;20049;-66
2022/01/19 09:05:02;;;;;;;194.05;159.02;;;;;;;14.81;31.50;94552.28;5007014;28;20088;-65
2022/01/19 09:07:28;;;;;;;194.45;157.05;;;;;;;14.82;31.43;94556.50;5009874;28;20114;-65
2022/01/19 09:09:53;;;;;;;194.45;158.30;;;;;;;14.82;31.36;94547.66;5006835;28;20073;-64
2022/01/19 09:12:19;;;;;;;194.50;156.30;;;;;;;14.82;31.34;94550.34;5011884;28;20495;-66
2022/01/19 09:14:44;;;;;;;193.45;155.43;;;;;;;14.82;31.30;94545.72;5009176;28;20057;-65
2022/01/19 09:17:10;;;;;;;195.75;158.30;;;;;;;14.82;31.50;94539.59;5010428;28;20152;-66
2022/01/19 09:19:39;;;;;;;195.07;157.43;;;;;;;14.82;31.43;94545.72;5008871;28;20508;-66
2022/01/19 09:22:06;;;;;;;193.60;157.93;;;;;;;14.82;31.42;94534.97;5011880;28;20393;-65
2022/01/19 09:24:40;;;;;;;194.23;157.30;;;;;;;14.83;31.28;94535.72;5012393;28;20042;-65
2022/01/19 09:27:08;;;;;;;202.80;162.50;;;;;;;14.83;31.46;94524.94;5005382;28;20114;-66
2022/01/19 09:29:38;;;;;;;187.77;153.75;;;;;;;14.83;31.45;94533.78;5008959;28;20072;-66
2022/01/19 09:32:07;;;;;;;191.13;155.80;;;;;;;14.84;31.41;94534.53;5008054;28;20041;-65
2022/01/19 09:34:34;;;;;;;193.15;157.93;;;;;;;14.82;31.40;94529.56;5008223;28;20089;-65
2022/01/19 09:36:59;;;;;;;193.05;157.02;;;;;;;14.86;31.41;94542.19;5009669;28;20132;-66
2022/01/19 09:39:26;;;;;;;190.30;155.07;;;;;;;14.84;31.51;94537.22;5008091;28;20049;-66
2022/01/19 09:41:54;;;;;;;186.43;151.27;;;;;;;14.86;31.54;94537.56;5008030;28;20068;-65
2022/01/19 09:44:22;;;;;;;197.80;161.60;;;;;;;14.85;31.39;94532.59;5010465;28;20191;-66
2022/01/19 09:46:49;;;;;;;191.55;157.00;;;;;;;14.83;31.56;94530.34;5010594;28;20046;-66
2022/01/19 09:49:17;;;;;;;194.35;159.15;;;;;;;14.86;31.47;94529.50;5008056;28;20066;-65
2022/01/19 09:51:45;;;;;;;191.52;154.77;;;;;;;14.88;31.53;94521.75;5007779;28;20053;-65
2022/01/19 09:54:16;;;;;;;191.90;154.90;;;;;;;14.86;31.54;94504.50;5007316;28;20053;-66
2022/01/19 09:56:42;;;;;;;195.48;158.82;;;;;;;14.88;31.59;94527.13;5008107;28;20050;-65
2022/01/19 09:59:08;;;;;;;196.02;158.82;;;;;;;14.88;31.50;94516.38;5007611;28;20054;-66
2022/01/19 10:01:34;;;;;;;191.45;155.00;;;;;;;14.89;31.42;94499.03;5003823;28;20045;-65
2022/01/19 10:04:19;;;;;;;200.05;164.23;;;;;;;14.89;31.39;94501.72;5004259;28;20039;-65
2022/01/19 10:06:44;;;;;;;190.77;155.68;;;;;;;14.89;31.68;94495.59;5007606;28;20065;-65
2022/01/19 10:09:10;;;;;;;193.38;158.88;;;;;;;14.92;31.57;94494.75;5007341;28;20049;-66
2022/01/19 10:17:06;;;;;;;198.25;159.25;;;;;;;14.92;31.60;94473.19;5010106;28;20131;-65
2022/01/19 10:19:45;;;;;;;194.07;156.85;;;;;;;14.93;31.71;94467.38;5008844;28;20376;-66
2022/01/19 10:22:25;;;;;;;193.13;156.15;;;;;;;14.92;31.66;94473.94;5009202;28;20076;-66
2022/01/19 10:24:55;;;;;;;192.63;157.32;;;;;;;14.93;31.56;94472.03;5008591;28;20045;-66
2022/01/19 10:27:28;;;;;;;197.48;161.07;;;;;;;14.93;31.68;94469.31;5006709;28;20188;-65
2022/01/19 10:30:03;;;;;;;202.82;164.90;;;;;;;14.93;31.68;94464.69;5005084;28;20052;-66
2022/01/19 10:32:32;;;;;;;191.93;155.43;;;;;;;14.94;31.54;94466.22;5006228;28;20056;-66
2022/01/19 10:35:13;;;;;;;191.85;156.43;;;;;;;14.95;31.44;94465.00;5009216;28;20061;-66
2022/01/19 10:37:38;;;;;;;200.90;161.90;;;;;;;14.94;31.61;94458.13;5007898;28;20747;-66
2022/01/19 10:40:04;;;;;;;196.10;160.07;;;;;;;14.95;31.55;94451.53;5007902;28;20055;-65
2022/01/19 10:42:31;;;;;;;193.95;158.27;;;;;;;14.96;31.55;94444.22;5011663;28;20452;-65
2022/01/19 10:44:59;;;;;;;190.38;156.02;;;;;;;14.96;31.60;94442.28;5005864;28;20045;-65
2022/01/19 10:47:47;;;;;;;195.45;159.80;;;;;;;14.96;31.60;94434.19;5005360;28;20583;-65
2022/01/19 10:50:20;;;;;;;194.13;157.05;;;;;;;14.96;31.51;94428.06;5007510;28;20128;-66
2022/01/19 10:52:46;;;;;;;194.77;158.52;;;;;;;14.97;31.54;94432.25;5008113;28;20045;-65
2022/01/19 10:55:24;;;;;;;192.65;155.55;;;;;;;14.97;31.55;94429.56;5010432;28;20066;-67
2022/01/19 10:57:51;;;;;;;190.57;154.13;;;;;;;14.98;31.55;94426.47;5008834;28;20733;-65
2022/01/19 11:00:29;;;;;;;196.90;160.57;;;;;;;14.97;31.51;94418.78;4989043;28;20038;-65
2022/01/19 11:03:13;;;;;;;196.85;159.40;;;;;;;14.97;31.69;94422.25;5005482;28;20061;-66
2022/01/19 11:05:48;;;;;;;187.10;150.32;;;;;;;14.98;31.69;94420.31;5007912;28;20184;-65
2022/01/19 11:08:16;;;;;;;192.25;154.93;;;;;;;14.99;31.62;94411.06;5002298;28;20061;-66
2022/01/19 11:10:47;;;;;;;193.07;157.77;;;;;;;15.00;31.52;94404.50;5003713;28;20050;-65
2022/01/19 11:13:15;;;;;;;194.52;158.90;;;;;;;15.00;31.61;94396.41;5007550;28;20046;-65
2022/01/19 11:15:44;;;;;;;194.32;159.88;;;;;;;14.98;31.54;94398.75;5005220;28;20065;-66
2022/01/19 11:18:09;;;;;;;193.80;158.02;;;;;;;14.99;31.72;94395.66;5003665;28;20053;-64
2022/01/19 11:20:43;;;;;;;196.27;159.00;;;;;;;15.00;31.85;94388.31;5009157;28;20038;-66
2022/01/19 11:23:18;;;;;;;194.82;159.05;;;;;;;15.00;31.63;94386.38;5006139;28;20117;-65
2022/01/19 11:26:05;;;;;;;197.38;162.32;;;;;;;15.00;31.71;94369.47;5005142;28;20126;-66
2022/01/19 11:28:35;;;;;;;195.15;157.85;;;;;;;15.00;31.72;94367.53;5003307;28;20061;-65
2022/01/19 11:31:19;;;;;;;198.18;160.38;;;;;;;15.02;31.78;94361.72;5003849;28;20053;-66
2022/01/19 11:33:53;;;;;;;197.23;159.57;;;;;;;15.01;31.71;94360.22;4997526;28;20042;-65
2022/01/19 11:36:24;;;;;;;195.30;159.70;;;;;;;15.01;31.72;94360.97;5006513;28;20688;-66
2022/01/19 11:39:12;;;;;;;191.15;153.68;;;;;;;15.01;31.60;94350.19;5008984;28;20092;-65
2022/01/19 11:41:44;;;;;;;198.15;159.73;;;;;;;15.01;31.72;94346.75;5007237;28;20053;-65
2022/01/19 11:44:17;;;;;;;187.80;153.15;;;;;;;15.01;31.35;94347.50;5008344;28;20049;-65
2022/01/19 11:46:53;;;;;;;189.05;154.82;;;;;;;15.02;31.82;94345.56;5006238;28;20054;-66
2022/01/19 11:49:46;;;;;;;196.48;160.32;;;;;;;15.02;31.77;94345.56;5009549;28;20046;-65
2022/01/19 11:52:15;;;;;;;191.60;155.40;;;;;;;15.03;31.81;94339.00;5007832;28;20050;-65
2022/01/19 11:54:41;;;;;;;190.43;156.37;;;;;;;15.02;31.80;94332.09;5014069;28;21905;-66
2022/01/19 11:57:18;;;;;;;199.48;163.18;;;;;;;15.02;31.65;94324.78;5007746;28;20300;-66
2022/01/19 11:59:43;;;;;;;192.75;155.38;;;;;;;15.02;31.69;94326.72;5009296;28;20063;-66
2022/01/19 12:02:21;;;;;;;195.80;159.23;;;;;;;15.01;31.72;94322.50;5011616;28;20049;-65
2022/01/19 12:04:58;;;;;;;195.57;158.57;;;;;;;14.99;31.77;94317.53;5013198;28;20052;-65
2022/01/19 12:07:38;;;;;;;197.45;160.82;;;;;;;14.97;31.55;94317.22;5005451;28;20056;-66
2022/01/19 12:10:07;;;;;;;193.23;157.85;;;;;;;14.97;31.49;94317.22;4999901;28;20054;-65
2022/01/19 12:12:38;;;;;;;195.25;160.40;;;;;;;14.95;31.42;94319.56;5008685;28;20077;-65
2022/01/19 12:15:07;;;;;;;189.23;154.48;;;;;;;14.93;31.19;94308.50;5009787;28;20476;-65
2022/01/19 12:17:57;;;;;;;191.38;156.07;;;;;;;14.91;31.38;94310.88;5007880;28;20042;-65
2022/01/19 12:20:51;;;;;;;198.23;161.65;;;;;;;14.91;31.13;94310.13;5009245;28;20046;-65
2022/01/19 12:23:28;;;;;;;197.98;160.13;;;;;;;14.90;31.23;94303.97;5006260;28;20050;-66
2022/01/19 12:26:00;;;;;;;201.18;164.48;;;;;;;14.91;31.40;94310.13;4999608;28;20064;-65
2022/01/19 12:28:53;;;;;;;191.25;157.63;;;;;;;14.90;31.30;94297.81;5009331;28;20052;-66
2022/01/19 12:31:22;;;;;;;191.60;155.15;;;;;;;14.89;31.17;94304.41;5011861;28;20054;-65
2022/01/19 12:34:03;;;;;;;186.95;153.68;;;;;;;14.88;31.12;94292.88;5010728;28;20641;-66
2022/01/19 12:36:47;;;;;;;197.30;158.95;;;;;;;14.86;31.38;94287.16;5009964;28;20049;-65
2022/01/19 12:39:25;;;;;;;187.68;151.60;;;;;;;14.84;31.33;94286.81;5008539;28;20046;-66